Aérodrome :
LOGIN :

S'inscrire | Disclaimer

   EN    FR    IT 

 










Légende :    VFR   VFR Marginal   IFR   IFR Intensif   IFR Très Intensif
Visi : 
Plafond : 
>= 8 km
>= 3000ft
5 à 8 km
1000 à 3000 ft
1500m à 5 km
500 à 1000 ft
800 à 1500m
200 à 500 ft
< 800m
< 200 ft
Symboles :   Orages  Brouillard  Fortes neiges  Fortes précipitations  Vent > 20 kt
SIGMETs :   Divers  Orages  Givrage  Turbulence  Onde Orograph.  Cendres Volcan.







- Altitude de l'aérodrome : 424 ft
- Code IATA : QGY


LHPR - Györ Per

DERNIER METAR :
  • 231515Z 31015KT 9999 OVC026 14/09 Q1015

METARs EXPIRÉS :
  • 231445Z 32017KT 9999 OVC026 14/09 Q1015
  • 231415Z 31016KT 280V340 9999 OVC026 15/09 Q1015
  • 231345Z 30017KT 9999 BKN026 15/09 Q1015
  • 231315Z 30019KT 9999 BKN026 15/09 Q1015
  • 231245Z 30019KT 9999 BKN026 15/10 Q1015

TAF TAF LHPR
Valide du 23 à 15h jusqu'au 24 à 00h UTC


231415Z 2315/2324 31015KT 9999 SCT025 BKN040
TEMPO 2315/2317 31018G28KT
Pas de NOTAMs connus pour ce terrain.
1 SIGMET publié pour la FIR Budapest (LHCC) :
 
Orages noyés dans la masse
LHCC SIGMET 04 VALID 231445/231600 LHBP
LHCC BUDAPEST FIR EMBD TS OBS N OF N4810 TOP FL320 MOV SSE NC=



MET'MAP, la Météo Aéronautique d'un coup d'oeil ! - Copyright ORBIFLY Décembre 2007 - Disclaimer

ORBIFLY MET'MAP TEAM :

Programmation & Développement : Alexandra Zaïnal
Conception & Développement : Baudouin d'Aumeries
Co-Programmation & Développement : Marc-Olivier Méhu
Soutien technique & logistique : Manuel Goepfert

Contact : metmap@orbifly.com




SOURCES & CREDITS :

   NOAA